Nearby METAR Reports

 

YBUD - Bundaberg, Australia
Distance from station: SSW 6km
Updated: 29/06/2022 04:20
NOT Current
Mostly cloudy
Mostly cloudy
 Wind from S
Wind: S 15 km/h
Temperature: 13°C
Dew Point: 12°C
Humidity: 94%
Barometer: 1022 hPa
Clouds: Mostly cloudy
Visibility: 10 km
Cloud details: Partly cloudy 488 m
Partly cloudy 823 m
Mostly cloudy 1128 m
2022/06/28 18:20 YBUD 281820Z AUTO 19008KT 9999 // SCT016 SCT027 BKN037 13/12 Q1022
YGLA - Gladstone, Australia
Distance from station: NW 159km
Updated: 29/06/2022 14:00
Mostly cloudy
Mostly cloudy
 Wind from ESE
Wind: ESE 17 km/h
Temperature: 20°C
Dew Point: 12°C
Humidity: 60%
Barometer: 1019 hPa
Clouds: Mostly cloudy
Visibility: 10 km
Cloud details: Partly cloudy 1036 m
Mostly cloudy 1250 m
2022/06/29 04:00 YGLA 290400Z AUTO 12009KT 9999 // SCT034 BKN041 20/12 Q1019
YBRK - Rockhampton Airp, Australia
Distance from station: NW 252km
Updated: 29/06/2022 14:00
Drizzle, Mostly cloudy
Drizzle, Mostly cloudy
 Wind from ESE
Wind: ESE 15 km/h
Temperature: 18°C
Dew Point: 14°C
Humidity: 78%
Barometer: 1019 hPa
Summary: Drizzle
Clouds: Mostly cloudy
Visibility: 6 km
Cloud details: Mostly cloudy 762 m
2022/06/29 04:00 YBRK 290400Z 12008KT 6000 DZ BKN025 18/14 Q1019
 
YBBN - Brisbane Intl Ar, Australia
Distance from station: SSE 292km
Updated: 29/06/2022 14:00
Light rain, Showers, Mostly cloudy
Light rain, Showers, Mostly cloudy
 Wind from S
Wind: S 11 km/h
Temperature: 17°C
Dew Point: 13°C
Humidity: 77%
Barometer: 1023 hPa
Summary: Light rain, Showers
Clouds: Mostly cloudy
Visibility: 10 km
Cloud details: Few Clouds 914 m
Mostly cloudy 1219 m
2022/06/29 04:00 YBBN 290400Z 18006KT 9999 -SHRA FEW030 BKN040 17/13 Q1023
YAMB - Amberley, Australia
Distance from station: S 312km
Updated: 29/06/2022 14:00
Mostly cloudy
Mostly cloudy
 Wind from SSE
Wind: SSE 15 km/h
Temperature: 18°C
Dew Point: 10°C
Humidity: 60%
Barometer: 1023 hPa
Clouds: Mostly cloudy
Visibility: 10 km
Cloud details: Partly cloudy 1067 m
Mostly cloudy 1524 m
Mostly cloudy 8534 m
2022/06/29 04:00 YAMB 290400Z 15008KT 9999 SCT035 BKN050 BKN280 18/10 Q1023
YBCG - Coolangatta Aws, Australia
Distance from station: SSE 386km
Updated: 29/06/2022 14:00
Overcast
Overcast
 Wind from SSW
Wind: SSW 11 km/h
Temperature: 18°C
Dew Point: 11°C
Humidity: 64%
Barometer: 1023 hPa
Clouds: Overcast
Visibility: 10 km
Cloud details: Overcast 1798 m
2022/06/29 04:00 YBCG 290400Z AUTO 20006KT 9999 // OVC059 18/11 Q1023 RF00.0/000.0